Time;durP1;ratioP1;P1;durP2;ratioP2;P2;SDS_P1;SDS_P2;PMS_P1;PMS_P2;Temp;Humidity;BMP_temperature;BMP_pressure;BME280_temperature;BME280_humidity;BME280_pressure;Samples;Min_cycle;Max_cycle;Signal;HPM_P1;HPM_P2
2022/02/20 00:00:33;;;;;;;2.78;1.30;;;3.60;99.90;;;;;;6162404;23;20088;-79
2022/02/20 00:02:58;;;;;;;3.60;1.40;;;3.60;99.90;;;;;;6163420;23;20009;-80
2022/02/20 00:05:24;;;;;;;2.92;1.33;;;3.60;99.90;;;;;;6161395;23;20021;-79
2022/02/20 00:07:51;;;;;;;1.77;1.00;;;3.60;99.90;;;;;;6162743;23;20001;-80
2022/02/20 00:10:16;;;;;;;2.50;1.30;;;3.60;99.90;;;;;;6164078;23;20029;-80
2022/02/20 00:12:42;;;;;;;2.88;1.42;;;3.60;99.90;;;;;;6162520;23;20437;-80
2022/02/20 00:15:07;;;;;;;3.13;1.92;;;3.60;99.90;;;;;;6161960;23;20002;-81
2022/02/20 00:17:33;;;;;;;1.30;1.05;;;3.60;99.90;;;;;;6164124;23;20021;-80
2022/02/20 00:19:59;;;;;;;5.13;1.40;;;3.70;99.90;;;;;;6163605;23;20000;-79
2022/02/20 00:22:26;;;;;;;4.13;1.33;;;3.70;99.90;;;;;;6161070;23;20005;-80
2022/02/20 00:24:52;;;;;;;4.25;1.50;;;3.70;99.90;;;;;;6160753;23;20005;-80
2022/02/20 00:27:17;;;;;;;1.75;0.98;;;3.70;99.90;;;;;;6164351;23;20005;-80
2022/02/20 00:29:43;;;;;;;3.30;1.42;;;3.70;99.90;;;;;;6163837;23;20020;-80
2022/02/20 00:32:08;;;;;;;3.80;1.20;;;3.70;99.90;;;;;;6163171;23;20028;-79
2022/02/20 00:34:34;;;;;;;3.67;1.35;;;3.70;99.90;;;;;;6163767;23;19997;-80
2022/02/20 00:37:00;;;;;;;7.85;1.65;;;3.80;99.90;;;;;;6161072;23;20002;-78
2022/02/20 00:39:28;;;;;;;6.28;3.55;;;3.70;99.90;;;;;;6161405;23;20001;-78
2022/02/20 00:41:54;;;;;;;6.32;2.13;;;3.70;99.90;;;;;;6163207;23;20001;-78
2022/02/20 00:44:20;;;;;;;4.68;1.80;;;3.70;99.90;;;;;;6155506;23;20370;-78
2022/02/20 00:46:45;;;;;;;8.15;2.47;;;3.70;99.90;;;;;;6154245;23;20006;-78
2022/02/20 00:49:11;;;;;;;5.45;2.45;;;3.60;99.90;;;;;;6154901;23;20006;-77
2022/02/20 00:51:38;;;;;;;3.28;1.90;;;3.60;99.90;;;;;;6154441;23;20497;-78
2022/02/20 00:54:08;;;;;;;3.30;1.90;;;3.50;99.90;;;;;;6155494;23;20009;-78
2022/02/20 00:56:35;;;;;;;4.82;2.08;;;3.50;99.90;;;;;;6155632;23;20081;-77
2022/02/20 00:59:01;;;;;;;5.22;2.28;;;3.40;99.90;;;;;;6153873;23;20010;-77
2022/02/20 01:01:26;;;;;;;6.50;1.88;;;3.40;99.90;;;;;;6155780;23;20009;-78
2022/02/20 01:03:52;;;;;;;5.43;1.80;;;3.40;99.90;;;;;;6153074;23;20009;-78
2022/02/20 01:06:19;;;;;;;3.85;1.92;;;3.40;99.90;;;;;;6154564;23;20056;-77
2022/02/20 01:08:44;;;;;;;6.07;2.30;;;3.40;99.90;;;;;;6154332;23;20312;-77
2022/02/20 01:11:10;;;;;;;4.45;2.10;;;3.40;99.90;;;;;;6155378;23;20080;-77
2022/02/20 01:13:36;;;;;;;3.50;2.30;;;3.40;99.90;;;;;;6154691;23;20506;-78
2022/02/20 01:16:04;;;;;;;2.75;1.98;;;3.50;99.90;;;;;;6155199;23;20556;-78
2022/02/20 01:18:29;;;;;;;7.82;2.60;;;3.50;99.90;;;;;;6155783;23;20002;-77
2022/02/20 01:20:55;;;;;;;4.85;2.83;;;3.50;99.90;;;;;;6155186;23;20023;-77
2022/02/20 01:23:21;;;;;;;7.45;3.10;;;3.50;99.90;;;;;;6155305;23;20060;-77
2022/02/20 01:25:46;;;;;;;4.72;2.92;;;3.40;99.90;;;;;;6155289;23;20009;-78
2022/02/20 01:28:12;;;;;;;4.75;3.28;;;3.40;99.90;;;;;;6155323;23;20005;-77
2022/02/20 01:30:38;;;;;;;9.27;3.90;;;3.50;99.90;;;;;;6154064;23;20021;-78
2022/02/20 01:33:04;;;;;;;5.38;3.50;;;3.40;99.90;;;;;;6153948;23;20040;-78
2022/02/20 01:35:29;;;;;;;9.15;3.60;;;3.40;99.90;;;;;;6154804;23;20334;-78
2022/02/20 01:37:55;;;;;;;4.75;3.08;;;3.50;99.90;;;;;;6155579;23;20080;-77
2022/02/20 01:40:27;;;;;;;5.68;3.42;;;3.50;99.90;;;;;;6155362;23;20085;-77
2022/02/20 01:42:52;;;;;;;10.05;3.25;;;3.50;99.90;;;;;;6155108;23;20001;-80
2022/02/20 01:45:18;;;;;;;7.38;2.88;;;3.40;99.90;;;;;;6155246;23;20012;-80
2022/02/20 01:47:44;;;;;;;8.02;3.22;;;3.40;99.90;;;;;;6153823;23;20006;-79
2022/02/20 01:50:11;;;;;;;6.95;2.65;;;3.40;99.90;;;;;;6155676;23;20028;-79
2022/02/20 01:52:38;;;;;;;6.38;2.50;;;3.40;99.90;;;;;;6156851;23;20076;-80
2022/02/20 01:55:08;;;;;;;5.65;2.78;;;3.40;99.90;;;;;;6155284;23;20002;-80
2022/02/20 01:57:37;;;;;;;7.38;2.78;;;3.30;99.90;;;;;;6156653;23;20005;-80
2022/02/20 02:00:07;;;;;;;7.72;2.30;;;3.30;99.90;;;;;;6157142;23;20121;-80
2022/02/20 02:02:33;;;;;;;2.75;2.45;;;3.20;99.90;;;;;;6157322;23;20017;-79
2022/02/20 02:04:58;;;;;;;6.07;2.67;;;3.20;99.90;;;;;;6156712;23;20009;-77
2022/02/20 02:07:26;;;;;;;7.10;3.00;;;3.20;99.90;;;;;;6156797;23;20009;-77
2022/02/20 02:09:52;;;;;;;5.90;2.72;;;3.20;99.90;;;;;;6157075;23;20006;-77
2022/02/20 02:12:17;;;;;;;5.78;2.65;;;3.20;99.90;;;;;;6155064;23;20452;-77
2022/02/20 02:14:53;;;;;;;8.57;3.33;;;3.20;99.90;;;;;;6156055;23;20029;-77
2022/02/20 02:17:18;;;;;;;8.57;3.10;;;3.30;99.90;;;;;;6156936;23;20001;-77
2022/02/20 02:19:44;;;;;;;4.63;3.00;;;3.30;99.90;;;;;;6156129;23;20033;-77
2022/02/20 02:22:10;;;;;;;8.32;3.60;;;3.40;99.90;;;;;;6158403;23;20008;-77
2022/02/20 02:24:36;;;;;;;12.30;3.22;;;3.40;99.90;;;;;;6156733;23;20060;-78
2022/02/20 02:27:04;;;;;;;4.22;2.80;;;3.50;99.90;;;;;;6157687;23;20005;-77
2022/02/20 02:29:30;;;;;;;6.70;3.50;;;3.50;99.90;;;;;;6156305;23;20005;-78
2022/02/20 02:31:56;;;;;;;8.85;2.95;;;3.50;99.90;;;;;;6154251;23;20526;-77
2022/02/20 02:34:22;;;;;;;6.47;3.22;;;3.50;99.90;;;;;;6155731;23;20006;-77
2022/02/20 02:36:51;;;;;;;4.90;3.38;;;3.50;99.90;;;;;;6155924;23;20005;-79
2022/02/20 02:39:17;;;;;;;6.25;3.05;;;3.60;99.90;;;;;;6155219;23;20457;-78
2022/02/20 02:41:44;;;;;;;4.28;2.88;;;3.60;99.90;;;;;;6156490;23;20005;-80
2022/02/20 02:44:09;;;;;;;5.40;3.08;;;3.70;99.90;;;;;;6154197;23;20005;-80
2022/02/20 02:46:35;;;;;;;7.10;2.90;;;3.70;99.90;;;;;;6155280;23;20032;-80
2022/02/20 02:49:01;;;;;;;6.28;3.40;;;3.80;99.90;;;;;;6156236;23;20025;-79
2022/02/20 02:51:27;;;;;;;6.75;3.83;;;3.80;99.90;;;;;;6154786;23;20011;-80
2022/02/20 02:53:57;;;;;;;5.05;3.58;;;3.80;99.90;;;;;;6155626;23;20092;-81
2022/02/20 02:56:23;;;;;;;7.05;3.90;;;3.80;99.90;;;;;;6154108;23;20009;-80
2022/02/20 02:58:51;;;;;;;6.63;3.50;;;3.80;99.90;;;;;;6154152;23;20002;-79
2022/02/20 03:01:17;;;;;;;5.68;3.78;;;3.90;99.90;;;;;;6156579;23;19998;-79
2022/02/20 03:03:48;;;;;;;6.70;4.43;;;3.90;99.90;;;;;;6154831;23;20029;-80
2022/02/20 03:06:15;;;;;;;9.90;4.72;;;3.90;99.90;;;;;;6155694;23;20009;-80
2022/02/20 03:08:43;;;;;;;6.82;4.45;;;3.90;99.90;;;;;;6156396;23;20460;-80
2022/02/20 03:11:09;;;;;;;7.85;5.45;;;3.90;99.90;;;;;;6156151;23;20016;-80
2022/02/20 03:13:37;;;;;;;12.20;6.20;;;4.00;99.90;;;;;;6155259;23;20028;-79
2022/02/20 03:16:04;;;;;;;9.40;5.22;;;4.00;99.90;;;;;;6154419;23;20006;-79
2022/02/20 03:18:34;;;;;;;10.27;6.30;;;4.00;99.90;;;;;;6155620;23;20056;-79
2022/02/20 03:21:05;;;;;;;9.93;6.70;;;4.10;99.90;;;;;;6156483;23;20069;-80
2022/02/20 03:23:31;;;;;;;10.32;6.35;;;4.10;99.90;;;;;;6154118;23;20016;-79
2022/02/20 03:25:57;;;;;;;12.65;7.15;;;4.10;99.90;;;;;;6152994;23;20029;-79
2022/02/20 03:28:23;;;;;;;15.05;7.38;;;4.10;99.90;;;;;;6153556;23;20528;-78
2022/02/20 03:30:51;;;;;;;13.10;7.60;;;4.20;99.90;;;;;;6154651;23;20097;-79
2022/02/20 03:33:17;;;;;;;16.50;8.30;;;4.20;99.90;;;;;;6156237;23;20009;-79
2022/02/20 03:35:45;;;;;;;15.60;8.02;;;4.20;99.90;;;;;;6156634;23;20136;-79
2022/02/20 03:38:14;;;;;;;16.33;8.70;;;4.20;99.90;;;;;;6152400;23;19998;-79
2022/02/20 03:40:40;;;;;;;15.05;9.00;;;4.30;99.90;;;;;;6152746;23;20002;-79
2022/02/20 03:43:06;;;;;;;18.05;9.05;;;4.30;99.90;;;;;;6152404;23;20008;-80
2022/02/20 03:45:38;;;;;;;22.85;11.13;;;4.30;99.90;;;;;;6151540;23;20084;-80
2022/02/20 03:48:04;;;;;;;31.00;11.88;;;4.40;99.90;;;;;;6151639;23;20005;-79
2022/02/20 03:50:30;;;;;;;26.23;12.05;;;4.40;99.90;;;;;;6150877;23;20011;-79
2022/02/20 03:52:55;;;;;;;24.02;12.38;;;4.40;99.90;;;;;;6154728;23;20005;-78
2022/02/20 03:55:21;;;;;;;25.98;13.00;;;4.50;99.90;;;;;;6153285;23;20008;-79
2022/02/20 03:57:50;;;;;;;24.45;12.65;;;4.50;99.90;;;;;;6155247;23;20369;-79
2022/02/20 04:00:19;;;;;;;25.58;11.82;;;4.50;99.90;;;;;;6153932;23;20005;-78
2022/02/20 04:02:45;;;;;;;23.85;12.13;;;4.50;99.90;;;;;;6154178;23;20014;-78
2022/02/20 04:05:16;;;;;;;30.20;14.40;;;4.50;99.90;;;;;;6155298;23;20836;-78
2022/02/20 04:07:44;;;;;;;25.73;12.65;;;4.50;99.90;;;;;;6156044;23;20029;-78
2022/02/20 04:10:14;;;;;;;30.00;14.15;;;4.50;99.90;;;;;;6154305;23;20005;-78
2022/02/20 04:12:41;;;;;;;27.13;12.97;;;4.60;99.90;;;;;;6155310;23;20611;-78
2022/02/20 04:15:10;;;;;;;31.02;16.27;;;4.60;99.90;;;;;;6153377;23;20225;-78
2022/02/20 04:17:46;;;;;;;32.97;15.25;;;4.60;99.90;;;;;;6154045;23;20001;-80
2022/02/20 04:20:12;;;;;;;31.98;15.00;;;4.60;99.90;;;;;;6155830;23;20001;-80
2022/02/20 04:22:41;;;;;;;29.60;15.73;;;4.60;99.90;;;;;;6153568;23;20373;-80
2022/02/20 04:25:08;;;;;;;30.80;15.55;;;4.60;99.90;;;;;;6154242;23;20128;-79
2022/02/20 04:27:34;;;;;;;27.92;14.77;;;4.60;99.90;;;;;;6153770;23;20005;-79
2022/02/20 04:30:00;;;;;;;35.05;16.13;;;4.60;99.90;;;;;;6153439;23;20071;-79
2022/02/20 04:32:29;;;;;;;35.75;16.75;;;4.60;99.90;;;;;;6153212;23;20017;-79
2022/02/20 04:34:55;;;;;;;32.75;16.35;;;4.60;99.90;;;;;;6154499;23;20032;-79
2022/02/20 04:37:20;;;;;;;29.63;15.40;;;4.60;99.90;;;;;;6152449;23;20002;-80
2022/02/20 04:39:46;;;;;;;33.33;17.08;;;4.60;99.90;;;;;;6150373;23;20590;-80
2022/02/20 04:42:12;;;;;;;42.75;17.85;;;4.60;99.90;;;;;;6152086;23;20001;-79
2022/02/20 04:44:40;;;;;;;34.30;16.55;;;4.50;99.90;;;;;;6154656;23;20310;-78
2022/02/20 04:47:06;;;;;;;39.40;17.30;;;4.50;99.90;;;;;;6153216;23;20523;-79
2022/02/20 04:49:38;;;;;;;32.58;15.77;;;4.50;99.90;;;;;;6154223;23;20002;-79
2022/02/20 04:52:03;;;;;;;36.45;16.10;;;4.50;99.90;;;;;;6155986;23;20001;-79
2022/02/20 04:54:29;;;;;;;43.75;19.50;;;4.50;99.90;;;;;;6153632;23;20088;-79
2022/02/20 04:56:56;;;;;;;38.90;17.60;;;4.50;99.90;;;;;;6153468;23;20084;-79
2022/02/20 04:59:21;;;;;;;40.33;18.75;;;4.50;99.90;;;;;;6155148;23;20001;-81
2022/02/20 05:01:47;;;;;;;32.63;17.40;;;4.50;99.90;;;;;;6154494;23;20542;-79
2022/02/20 05:04:13;;;;;;;35.05;17.52;;;4.40;99.90;;;;;;6154140;23;20013;-80
2022/02/20 05:06:39;;;;;;;34.97;18.00;;;4.40;99.90;;;;;;6154930;23;20417;-80
2022/02/20 05:09:04;;;;;;;31.98;16.25;;;4.30;99.90;;;;;;6153825;23;20096;-80
2022/02/20 05:11:30;;;;;;;34.58;18.35;;;4.30;99.90;;;;;;6155624;23;20393;-80
2022/02/20 05:14:00;;;;;;;37.83;18.23;;;4.30;99.90;;;;;;6154551;23;20009;-80
2022/02/20 05:16:29;;;;;;;37.22;17.25;;;4.30;99.90;;;;;;6154617;23;20076;-80
2022/02/20 05:18:55;;;;;;;33.45;18.25;;;4.20;99.90;;;;;;6155425;23;20041;-80
2022/02/20 05:21:24;;;;;;;35.15;19.02;;;4.20;99.90;;;;;;6155566;23;20437;-80
2022/02/20 05:23:50;;;;;;;37.63;17.77;;;4.20;99.90;;;;;;6155359;23;20049;-80
2022/02/20 05:26:18;;;;;;;46.67;19.83;;;4.20;99.90;;;;;;6155102;23;20006;-80
2022/02/20 05:28:46;;;;;;;41.10;19.08;;;4.20;99.90;;;;;;6157193;23;20480;-80
2022/02/20 05:31:14;;;;;;;39.20;18.27;;;4.10;99.90;;;;;;6155770;23;20021;-80
2022/02/20 05:33:42;;;;;;;33.92;17.52;;;4.20;99.90;;;;;;6152869;23;20002;-80
2022/02/20 05:36:09;;;;;;;33.95;17.55;;;4.10;99.90;;;;;;6153036;23;19998;-80
2022/02/20 05:38:38;;;;;;;37.88;17.48;;;4.10;99.90;;;;;;6155456;23;20001;-81
2022/02/20 05:41:03;;;;;;;37.90;18.33;;;4.10;99.90;;;;;;6155947;23;20032;-80
2022/02/20 05:43:32;;;;;;;36.78;17.23;;;4.10;99.90;;;;;;6157151;23;20429;-80
2022/02/20 05:46:00;;;;;;;35.88;18.50;;;4.00;99.90;;;;;;6157137;23;20080;-80
2022/02/20 05:48:26;;;;;;;40.75;19.40;;;4.00;99.90;;;;;;6155415;23;20433;-80
2022/02/20 05:50:54;;;;;;;39.08;17.83;;;4.00;99.90;;;;;;6157107;23;20096;-80
2022/02/20 05:53:20;;;;;;;40.13;19.55;;;4.10;99.90;;;;;;6157039;23;20005;-80
2022/02/20 05:55:46;;;;;;;67.60;21.88;;;4.00;99.90;;;;;;6154659;23;20008;-81
2022/02/20 05:58:12;;;;;;;37.75;18.15;;;4.10;99.90;;;;;;6155152;23;20009;-80
2022/02/20 06:00:38;;;;;;;47.03;19.80;;;4.00;99.90;;;;;;6155585;23;20005;-81
2022/02/20 06:03:03;;;;;;;39.03;18.33;;;4.00;99.90;;;;;;6155294;23;20033;-80
2022/02/20 06:05:29;;;;;;;46.92;20.58;;;3.90;99.90;;;;;;6155093;23;20329;-79
2022/02/20 06:08:04;;;;;;;50.88;20.65;;;3.90;99.90;;;;;;6157008;23;20009;-80
2022/02/20 06:10:30;;;;;;;43.15;19.98;;;3.90;99.90;;;;;;6155703;23;20013;-78
2022/02/20 06:12:58;;;;;;;43.67;18.20;;;3.90;99.90;;;;;;6154799;23;20567;-78
2022/02/20 06:15:23;;;;;;;39.55;18.52;;;3.80;99.90;;;;;;6156358;23;20001;-78
2022/02/20 06:17:51;;;;;;;41.85;18.60;;;3.90;99.90;;;;;;6156618;23;20009;-79
2022/02/20 06:20:17;;;;;;;38.08;17.30;;;3.80;99.90;;;;;;6156780;23;19998;-78
2022/02/20 06:22:46;;;;;;;40.83;18.08;;;3.80;99.90;;;;;;6154791;23;20040;-78
2022/02/20 06:25:14;;;;;;;33.42;15.82;;;3.80;99.90;;;;;;6156157;23;20005;-78
2022/02/20 06:27:42;;;;;;;38.63;16.55;;;3.70;99.90;;;;;;6154701;23;20509;-78
2022/02/20 06:30:11;;;;;;;28.55;14.43;;;3.70;99.90;;;;;;6154987;23;20383;-77
2022/02/20 06:32:39;;;;;;;34.72;16.48;;;3.80;99.90;;;;;;6156301;23;20627;-78
2022/02/20 06:35:05;;;;;;;26.40;14.88;;;3.70;99.90;;;;;;6155668;23;19998;-77
2022/02/20 06:37:33;;;;;;;32.25;14.73;;;3.70;99.90;;;;;;6154267;23;20012;-81
2022/02/20 06:40:01;;;;;;;29.88;14.07;;;3.70;99.90;;;;;;6154497;23;20009;-81
2022/02/20 06:42:27;;;;;;;30.85;15.20;;;3.70;99.90;;;;;;6162369;23;19998;-82
2022/02/20 06:44:53;;;;;;;36.88;16.33;;;3.70;99.90;;;;;;6163898;23;20005;-78
2022/02/20 06:47:24;;;;;;;30.40;15.65;;;3.70;99.90;;;;;;6161992;23;20001;-79
2022/02/20 06:49:49;;;;;;;35.72;16.30;;;3.70;99.90;;;;;;6163358;23;20033;-78
2022/02/20 06:52:16;;;;;;;33.58;15.80;;;3.80;99.90;;;;;;6160116;23;20009;-78
2022/02/20 06:54:42;;;;;;;39.05;18.38;;;3.80;99.90;;;;;;6162215;23;20025;-78
2022/02/20 06:57:07;;;;;;;36.20;16.65;;;3.80;99.90;;;;;;6162923;23;20358;-78
2022/02/20 06:59:33;;;;;;;38.42;17.60;;;3.90;99.90;;;;;;6162245;23;20059;-79
2022/02/20 07:01:59;;;;;;;37.60;16.08;;;3.90;99.90;;;;;;6161001;23;20002;-77
2022/02/20 07:04:25;;;;;;;38.60;17.73;;;3.90;99.90;;;;;;6163472;23;20354;-81
2022/02/20 07:06:55;;;;;;;35.72;15.90;;;3.90;99.90;;;;;;6165547;23;20088;-81
2022/02/20 07:09:21;;;;;;;35.28;16.88;;;4.00;99.90;;;;;;6163257;23;20001;-79
2022/02/20 07:11:50;;;;;;;35.42;16.77;;;4.00;99.90;;;;;;6163408;23;20028;-81
2022/02/20 07:14:16;;;;;;;30.73;16.70;;;4.00;99.90;;;;;;6163661;23;20010;-80
2022/02/20 07:16:44;;;;;;;34.15;17.13;;;3.90;99.90;;;;;;6163370;23;20025;-81
2022/02/20 07:19:10;;;;;;;32.97;15.27;;;4.00;99.90;;;;;;6163131;23;20040;-81
2022/02/20 07:21:36;;;;;;;33.72;16.08;;;4.00;99.90;;;;;;6163203;23;20053;-80
2022/02/20 07:24:01;;;;;;;35.20;16.58;;;4.00;99.90;;;;;;6163104;23;20017;-79
2022/02/20 07:26:32;;;;;;;26.45;14.82;;;4.00;99.90;;;;;;6161887;23;20425;-78
2022/02/20 07:29:00;;;;;;;27.92;15.57;;;3.90;99.90;;;;;;6163204;23;20002;-81
2022/02/20 07:31:31;;;;;;;38.15;18.58;;;4.00;99.90;;;;;;6161946;23;20454;-80
2022/02/20 07:33:59;;;;;;;34.13;16.48;;;4.00;99.90;;;;;;6161511;23;20388;-80
2022/02/20 07:36:25;;;;;;;33.10;16.38;;;4.00;99.90;;;;;;6160392;23;20089;-80
2022/02/20 07:38:51;;;;;;;30.83;15.82;;;4.00;99.90;;;;;;6161546;23;20433;-80
2022/02/20 07:41:17;;;;;;;36.03;17.73;;;4.00;99.90;;;;;;6163384;23;20048;-81
2022/02/20 07:43:48;;;;;;;31.23;15.30;;;4.00;99.90;;;;;;6164593;23;20012;-79
2022/02/20 07:46:15;;;;;;;30.30;15.10;;;4.10;99.90;;;;;;6163799;23;20008;-80
2022/02/20 07:48:40;;;;;;;28.80;16.90;;;4.10;99.90;;;;;;6165365;23;20007;-79
2022/02/20 07:51:07;;;;;;;29.70;16.38;;;4.20;99.90;;;;;;6162565;23;20389;-80
2022/02/20 07:53:33;;;;;;;32.80;17.30;;;4.20;99.90;;;;;;6163081;23;20005;-80
2022/02/20 07:55:58;;;;;;;32.60;15.85;;;4.20;99.90;;;;;;6161026;23;20007;-80
2022/02/20 07:58:24;;;;;;;30.20;15.40;;;4.20;99.90;;;;;;6163090;23;20008;-80
2022/02/20 08:00:49;;;;;;;27.35;14.98;;;4.30;99.90;;;;;;6163452;23;20060;-81
2022/02/20 08:03:15;;;;;;;25.60;14.57;;;4.30;99.90;;;;;;6164658;23;20332;-82
2022/02/20 08:05:43;;;;;;;24.17;14.63;;;4.40;99.90;;;;;;6162832;23;20108;-80
2022/02/20 08:08:12;;;;;;;23.10;13.43;;;4.40;99.90;;;;;;6164403;23;20456;-81
2022/02/20 08:10:40;;;;;;;27.08;14.63;;;4.50;99.90;;;;;;6166309;23;20002;-82
2022/02/20 08:13:06;;;;;;;24.58;13.68;;;4.50;99.90;;;;;;6161656;23;20035;-81
2022/02/20 08:15:37;;;;;;;25.02;13.82;;;4.50;99.90;;;;;;6161710;23;20084;-83
2022/02/20 08:18:03;;;;;;;23.45;11.13;;;4.60;99.90;;;;;;6165420;23;20198;-80
2022/02/20 08:20:31;;;;;;;21.83;11.05;;;4.70;99.90;;;;;;6163006;23;20008;-80
2022/02/20 08:22:57;;;;;;;14.75;8.30;;;4.80;99.90;;;;;;6163981;23;20052;-80
2022/02/20 08:25:26;;;;;;;14.65;6.78;;;4.80;99.90;;;;;;6162198;23;20028;-80
2022/02/20 08:27:54;;;;;;;9.75;6.72;;;5.00;99.90;;;;;;6160456;23;20005;-80
2022/02/20 08:30:23;;;;;;;10.32;5.55;;;5.00;99.90;;;;;;6162097;23;20009;-80
2022/02/20 08:32:51;;;;;;;8.32;5.10;;;5.10;99.90;;;;;;6162839;23;20036;-81
2022/02/20 08:35:17;;;;;;;10.52;5.50;;;5.10;99.90;;;;;;6163092;23;20004;-81
2022/02/20 08:37:46;;;;;;;11.40;5.65;;;5.10;99.90;;;;;;6161792;23;20005;-80
2022/02/20 08:40:14;;;;;;;7.53;4.65;;;5.20;99.90;;;;;;6162170;23;20008;-81
2022/02/20 08:42:43;;;;;;;9.00;4.75;;;5.20;99.90;;;;;;6163442;23;20296;-79
2022/02/20 08:45:09;;;;;;;9.80;5.70;;;5.20;99.90;;;;;;6160256;23;20009;-80
2022/02/20 08:47:36;;;;;;;10.98;5.32;;;5.30;99.90;;;;;;6161524;23;20033;-80
2022/02/20 08:50:02;;;;;;;8.80;5.18;;;5.30;99.90;;;;;;6161830;23;20425;-80
2022/02/20 08:52:33;;;;;;;11.55;4.43;;;5.40;99.90;;;;;;6162093;23;20005;-82
2022/02/20 08:55:02;;;;;;;8.48;4.47;;;5.40;99.90;;;;;;6163901;23;20089;-85
2022/02/20 08:57:28;;;;;;;10.88;4.40;;;5.40;99.90;;;;;;6166506;23;20001;-84
2022/02/20 08:59:58;;;;;;;6.47;4.18;;;5.40;99.90;;;;;;6165495;23;20056;-83
2022/02/20 09:02:38;;;;;;;8.90;5.32;;;5.40;99.90;;;;;;6165544;23;19997;-81
2022/02/20 09:05:04;;;;;;;10.60;5.40;;;5.40;99.90;;;;;;6166807;23;20009;-84
2022/02/20 09:07:29;;;;;;;8.27;5.10;;;5.40;99.90;;;;;;6166200;23;20558;-82
2022/02/20 09:09:58;;;;;;;12.32;5.18;;;5.30;99.90;;;;;;6164809;23;20016;-81
2022/02/20 09:12:24;;;;;;;8.32;4.93;;;5.30;99.90;;;;;;6165133;23;19997;-81
2022/02/20 09:14:50;;;;;;;11.13;4.60;;;5.40;99.90;;;;;;6163405;23;20008;-81
2022/02/20 09:17:15;;;;;;;9.15;5.15;;;5.40;99.90;;;;;;6162643;23;19997;-80
2022/02/20 09:19:41;;;;;;;13.10;5.78;;;5.40;99.90;;;;;;6163728;23;20404;-81
2022/02/20 09:22:07;;;;;;;8.98;5.20;;;5.40;99.90;;;;;;6164491;23;20010;-80
2022/02/20 09:24:33;;;;;;;12.10;6.05;;;5.40;99.90;;;;;;6164382;23;20001;-80
2022/02/20 09:26:58;;;;;;;9.70;6.30;;;5.50;99.90;;;;;;6164905;23;20015;-80
2022/02/20 09:29:24;;;;;;;9.23;5.72;;;5.40;99.90;;;;;;6163728;23;20011;-80
2022/02/20 09:31:59;;;;;;;10.40;5.82;;;5.30;99.90;;;;;;6164638;23;20006;-81
2022/02/20 09:34:24;;;;;;;15.40;6.18;;;5.30;99.90;;;;;;6163445;23;20440;-81
2022/02/20 09:36:50;;;;;;;14.40;6.28;;;5.30;99.90;;;;;;6161648;23;19998;-81
2022/02/20 09:39:15;;;;;;;13.60;6.63;;;5.20;99.90;;;;;;6165520;23;20018;-79
2022/02/20 09:41:42;;;;;;;12.30;7.28;;;5.20;99.90;;;;;;6163234;23;20006;-79
2022/02/20 09:44:11;;;;;;;19.05;8.77;;;5.20;99.90;;;;;;6159422;23;20001;-78
2022/02/20 09:46:42;;;;;;;13.57;6.88;;;5.10;99.90;;;;;;6157508;23;20054;-78
2022/02/20 09:49:08;;;;;;;14.07;6.78;;;5.10;99.90;;;;;;6157637;23;20009;-79
2022/02/20 09:51:35;;;;;;;14.73;7.25;;;5.10;99.90;;;;;;6157836;23;20028;-77
2022/02/20 09:54:01;;;;;;;13.57;7.88;;;5.10;99.90;;;;;;6160694;23;20044;-79
2022/02/20 09:56:27;;;;;;;15.88;7.50;;;5.10;99.90;;;;;;6160011;23;20005;-79
2022/02/20 09:58:54;;;;;;;16.02;7.60;;;5.10;99.90;;;;;;6164409;23;20002;-80
2022/02/20 10:01:20;;;;;;;15.00;7.78;;;5.10;99.90;;;;;;6167792;23;20006;-80
2022/02/20 10:03:47;;;;;;;15.68;8.05;;;5.00;99.90;;;;;;6160455;23;20299;-80
2022/02/20 10:06:18;;;;;;;16.40;8.70;;;5.00;99.90;;;;;;6156890;23;20198;-79
2022/02/20 10:08:48;;;;;;;15.05;8.07;;;5.10;99.90;;;;;;6154583;23;20006;-80
2022/02/20 10:11:14;;;;;;;;;;;5.10;99.90;;;;;;6155644;23;20001;-79
2022/02/20 10:13:40;;;;;;;16.55;7.35;;;5.00;99.90;;;;;;6153151;23;19920;-80
2022/02/20 10:16:22;;;;;;;14.68;6.72;;;5.10;99.90;;;;;;6153576;23;20002;-79
2022/02/20 10:18:49;;;;;;;11.45;7.63;;;5.10;99.90;;;;;;6156678;23;20005;-79
2022/02/20 10:21:21;;;;;;;12.00;7.68;;;5.10;99.90;;;;;;6154996;23;20168;-79
2022/02/20 10:23:47;;;;;;;11.52;6.63;;;5.10;99.90;;;;;;6156027;23;20002;-79
2022/02/20 10:26:18;;;;;;;13.23;6.25;;;5.10;99.90;;;;;;6154767;23;20005;-80
2022/02/20 10:28:59;;;;;;;;;;;5.20;99.90;;;;;;6157573;23;20010;-79
2022/02/20 10:31:45;;;;;;;12.30;6.65;;;5.20;99.90;;;;;;6155543;23;19924;-79
2022/02/20 10:34:18;;;;;;;10.77;5.90;;;5.20;99.90;;;;;;6154614;23;20345;-79
2022/02/20 10:36:48;;;;;;;14.10;6.30;;;5.20;99.90;;;;;;6156070;23;19994;-79
2022/02/20 10:39:33;;;;;;;13.60;6.00;;;5.20;99.90;;;;;;6154343;23;20016;-79
2022/02/20 10:42:21;;;;;;;10.48;5.57;;;5.20;99.90;;;;;;6154021;23;20380;-79
2022/02/20 10:45:07;;;;;;;19.73;6.80;;;5.20;99.90;;;;;;6154152;23;20009;-80
2022/02/20 10:47:40;;;;;;;11.95;6.47;;;5.20;99.90;;;;;;6155085;23;20006;-80
2022/02/20 10:50:23;;;;;;;12.55;5.93;;;5.20;99.90;;;;;;6153979;23;20009;-79
2022/02/20 10:53:05;;;;;;;12.45;6.28;;;5.30;99.90;;;;;;6153450;23;20488;-78
2022/02/20 10:55:40;;;;;;;9.57;5.95;;;5.40;99.90;;;;;;6156253;23;20011;-78
2022/02/20 10:58:13;;;;;;;12.00;5.43;;;5.40;99.90;;;;;;6157847;23;20028;-80
2022/02/20 11:00:51;;;;;;;9.50;6.00;;;5.50;99.90;;;;;;6153818;23;20451;-79
2022/02/20 11:03:19;;;;;;;9.50;5.63;;;5.40;99.90;;;;;;6153730;23;20028;-79
2022/02/20 11:05:45;;;;;;;15.02;5.45;;;5.50;99.90;;;;;;6152408;23;20033;-79
2022/02/20 11:08:13;;;;;;;7.57;4.82;;;5.50;99.90;;;;;;6154125;23;20009;-80
2022/02/20 11:10:39;;;;;;;9.55;5.10;;;5.50;99.90;;;;;;6150636;23;20031;-79
2022/02/20 11:13:06;;;;;;;17.20;5.72;;;5.60;99.90;;;;;;6153138;23;20012;-78
2022/02/20 11:15:34;;;;;;;8.52;4.50;;;5.70;99.90;;;;;;6152107;23;20028;-78
2022/02/20 11:18:02;;;;;;;11.55;5.25;;;5.70;99.90;;;;;;6152513;23;20337;-78
2022/02/20 11:20:32;;;;;;;13.18;5.70;;;5.70;99.90;;;;;;6152954;23;20081;-79
2022/02/20 11:23:04;;;;;;;13.23;5.32;;;5.70;99.90;;;;;;6151991;23;20009;-79
2022/02/20 11:25:32;;;;;;;15.18;6.07;;;5.80;99.90;;;;;;6149674;23;20091;-79
2022/02/20 11:27:59;;;;;;;14.05;6.97;;;5.80;99.90;;;;;;6151371;23;20429;-79
2022/02/20 11:30:26;;;;;;;13.70;5.43;;;5.90;99.90;;;;;;6151511;23;20401;-79
2022/02/20 11:32:55;;;;;;;18.45;6.07;;;5.90;99.90;;;;;;6149846;23;20047;-79
2022/02/20 11:35:37;;;;;;;10.02;5.22;;;6.00;99.90;;;;;;6152207;23;20025;-78
2022/02/20 11:38:14;;;;;;;15.35;5.10;;;6.10;99.90;;;;;;6153435;23;20453;-79
2022/02/20 11:41:03;;;;;;;12.77;5.78;;;6.20;99.90;;;;;;6151677;23;19998;-78
2022/02/20 11:43:40;;;;;;;12.18;5.57;;;6.20;99.90;;;;;;6149970;23;20310;-79
2022/02/20 11:46:18;;;;;;;16.55;4.57;;;6.40;99.90;;;;;;6152439;23;20005;-79
2022/02/20 11:49:02;;;;;;;11.35;4.47;;;6.40;99.90;;;;;;6153556;23;20349;-79
2022/02/20 11:51:29;;;;;;;10.23;5.03;;;6.40;99.90;;;;;;6152635;23;20002;-78
2022/02/20 11:54:16;;;;;;;8.38;3.90;;;6.50;99.90;;;;;;6151170;23;20515;-79
2022/02/20 11:56:42;;;;;;;15.02;4.68;;;6.50;99.90;;;;;;6149741;23;20086;-79
2022/02/20 11:59:18;;;;;;;6.28;3.72;;;6.60;99.90;;;;;;6151212;23;20001;-78
2022/02/20 12:02:09;;;;;;;5.30;3.45;;;6.60;99.90;;;;;;6150345;23;20010;-79
2022/02/20 12:04:50;;;;;;;7.00;3.67;;;6.60;99.90;;;;;;6149363;23;20005;-79
2022/02/20 12:07:43;;;;;;;11.48;4.00;;;6.70;99.90;;;;;;6151437;23;20020;-79
2022/02/20 12:10:57;;;;;;;8.20;3.47;;;6.70;99.90;;;;;;6149992;23;20013;-78
2022/02/20 12:13:18;;;;;;;6.90;3.45;;;6.70;99.90;;;;;;6150861;23;20045;-79
2022/02/20 12:15:44;;;;;;;8.75;3.45;;;6.80;99.90;;;;;;6152263;23;20475;-78
2022/02/20 12:18:10;;;;;;;5.72;2.53;;;6.80;99.90;;;;;;6155547;23;20002;-80
2022/02/20 12:20:57;;;;;;;7.53;3.17;;;6.80;99.90;;;;;;6150940;23;20025;-78
2022/02/20 12:23:37;;;;;;;9.13;3.15;;;6.80;99.90;;;;;;6154473;23;20017;-84
2022/02/20 12:26:13;;;;;;;7.30;3.33;;;6.80;99.90;;;;;;6155754;23;20116;-83
2022/02/20 12:28:42;;;;;;;7.45;2.80;;;6.80;99.90;;;;;;6156458;23;20013;-83
2022/02/20 12:31:09;;;;;;;8.43;3.80;;;6.80;99.90;;;;;;6156551;23;20001;-83
2022/02/20 12:33:48;;;;;;;9.27;2.95;;;6.90;99.90;;;;;;6158140;23;20052;-84
2022/02/20 12:36:28;;;;;;;6.20;2.75;;;6.90;99.90;;;;;;6156975;23;20002;-84
2022/02/20 12:39:00;;;;;;;8.00;2.88;;;6.90;99.90;;;;;;6153661;23;20468;-83
2022/02/20 12:41:28;;;;;;;6.50;2.40;;;7.00;99.90;;;;;;6150843;23;20006;-83
2022/02/20 12:43:55;;;;;;;10.93;2.70;;;7.00;99.90;;;;;;6149180;23;20017;-82
2022/02/20 12:46:21;;;;;;;9.68;2.33;;;7.00;99.90;;;;;;6151605;23;20483;-82
2022/02/20 12:48:48;;;;;;;7.53;2.38;;;7.00;99.90;;;;;;6150577;23;20024;-83
2022/02/20 12:51:14;;;;;;;7.78;2.40;;;7.00;99.90;;;;;;6150508;23;20433;-83
2022/02/20 12:53:44;;;;;;;5.68;2.40;;;7.10;99.90;;;;;;6151221;23;20016;-84